createdAt,value
2019-03-27T00:00:48.179Z,8.90
2019-03-27T00:03:17.034Z,8.90
2019-03-27T00:05:45.441Z,8.80
2019-03-27T00:08:14.266Z,8.80
2019-03-27T00:10:43.101Z,8.80
2019-03-27T00:13:11.513Z,8.70
2019-03-27T00:15:39.915Z,8.80
2019-03-27T00:18:08.370Z,8.80
2019-03-27T00:20:36.780Z,8.80
2019-03-27T00:23:05.173Z,8.80
2019-03-27T00:25:33.622Z,8.80
2019-03-27T00:28:02.037Z,8.80
2019-03-27T00:30:30.449Z,8.80
2019-03-27T00:32:59.256Z,8.80
2019-03-27T00:35:27.669Z,8.70
2019-03-27T00:37:56.082Z,8.70
2019-03-27T00:40:24.598Z,8.70
2019-03-27T00:42:53.269Z,8.70
2019-03-27T00:45:26.939Z,8.70
2019-03-27T00:47:51.970Z,8.70
2019-03-27T00:50:20.398Z,8.70
2019-03-27T00:52:48.807Z,8.60
2019-03-27T00:55:17.275Z,8.60
2019-03-27T00:57:45.975Z,8.60
2019-03-27T01:00:26.586Z,8.60
2019-03-27T01:02:54.998Z,8.50
2019-03-27T01:05:23.694Z,8.50
2019-03-27T01:07:52.129Z,8.50
2019-03-27T01:10:21.282Z,8.40
2019-03-27T01:12:49.733Z,8.40
2019-03-27T01:15:18.203Z,8.30
2019-03-27T01:17:46.930Z,8.20
2019-03-27T01:20:15.931Z,8.20
2019-03-27T01:22:44.553Z,8.10
2019-03-27T01:25:14.076Z,8.10
2019-03-27T01:27:42.497Z,8.10
2019-03-27T01:30:11.820Z,8.00
2019-03-27T01:32:40.228Z,8.00
2019-03-27T01:35:08.717Z,7.90
2019-03-27T01:37:37.244Z,7.90
2019-03-27T01:40:06.379Z,7.80
2019-03-27T01:42:34.791Z,7.80
2019-03-27T01:45:04.735Z,7.70
2019-03-27T01:47:33.155Z,7.70
2019-03-27T01:50:02.211Z,7.60
2019-03-27T01:52:30.735Z,7.60
2019-03-27T01:54:59.140Z,7.50
2019-03-27T01:57:27.814Z,7.50
2019-03-27T01:59:56.622Z,7.40
2019-03-27T02:02:25.308Z,7.40
2019-03-27T02:04:53.713Z,7.40
2019-03-27T02:07:22.254Z,7.20
2019-03-27T02:09:50.955Z,7.20
2019-03-27T02:12:20.054Z,7.10
2019-03-27T02:14:48.743Z,7.10
2019-03-27T02:17:17.636Z,7.10
2019-03-27T02:19:46.055Z,7.10
2019-03-27T02:22:14.499Z,7.00
2019-03-27T02:24:42.920Z,7.00
2019-03-27T02:27:11.334Z,7.00
2019-03-27T02:29:39.759Z,6.90
2019-03-27T02:32:08.177Z,6.90
2019-03-27T02:34:36.658Z,6.80
2019-03-27T02:37:05.147Z,6.80
2019-03-27T02:39:33.559Z,6.80
2019-03-27T02:42:02.413Z,6.80
2019-03-27T02:44:31.031Z,6.70
2019-03-27T02:46:59.778Z,6.70
2019-03-27T02:49:28.206Z,6.70
2019-03-27T02:51:56.649Z,6.60
2019-03-27T02:54:25.340Z,6.60
2019-03-27T02:56:53.832Z,6.60
2019-03-27T02:59:22.609Z,6.60
2019-03-27T03:01:51.306Z,6.50
2019-03-27T03:04:20.199Z,6.50
2019-03-27T03:06:48.833Z,6.40
2019-03-27T03:09:17.220Z,6.40
2019-03-27T03:11:45.631Z,6.40
2019-03-27T03:14:14.121Z,6.40
2019-03-27T03:16:43.476Z,6.40
2019-03-27T03:19:11.962Z,6.40
2019-03-27T03:21:40.673Z,6.40
2019-03-27T03:24:09.226Z,6.40
2019-03-27T03:26:37.627Z,6.50
2019-03-27T03:29:06.086Z,6.50
2019-03-27T03:31:34.521Z,6.50
2019-03-27T03:34:02.933Z,6.50
2019-03-27T03:36:31.395Z,6.50
2019-03-27T03:38:59.811Z,6.50
2019-03-27T03:41:28.519Z,6.50
2019-03-27T03:43:57.325Z,6.50
2019-03-27T03:46:25.723Z,6.50
2019-03-27T03:48:54.138Z,6.40
2019-03-27T03:51:22.946Z,6.40
2019-03-27T03:53:51.351Z,6.40
2019-03-27T03:56:21.634Z,6.40
2019-03-27T03:58:50.554Z,6.40
2019-03-27T04:01:20.011Z,6.40
2019-03-27T04:03:49.065Z,6.40
2019-03-27T04:06:17.482Z,6.40
2019-03-27T04:08:45.903Z,6.40
2019-03-27T04:11:14.630Z,6.40
2019-03-27T04:13:43.397Z,6.40
2019-03-27T04:16:12.356Z,6.40
2019-03-27T04:18:40.795Z,6.40
2019-03-27T04:21:09.588Z,6.40
2019-03-27T04:23:38.007Z,6.40
2019-03-27T04:26:10.306Z,6.40
2019-03-27T04:28:36.595Z,6.40
2019-03-27T04:31:05.025Z,6.40
2019-03-27T04:33:33.674Z,6.40
2019-03-27T04:36:02.442Z,6.40
2019-03-27T04:38:30.864Z,6.30
2019-03-27T04:40:59.277Z,6.30
2019-03-27T04:43:27.744Z,6.30
2019-03-27T04:45:56.153Z,6.30
2019-03-27T04:48:24.853Z,6.30
2019-03-27T04:50:53.305Z,6.30
2019-03-27T04:53:22.346Z,6.20
2019-03-27T04:55:50.995Z,6.20
2019-03-27T04:58:19.729Z,6.20
2019-03-27T05:00:48.133Z,6.20
2019-03-27T05:03:16.789Z,6.10
2019-03-27T05:05:45.777Z,6.10
2019-03-27T05:08:14.492Z,6.10
2019-03-27T05:10:43.196Z,6.00
2019-03-27T05:13:11.636Z,6.00
2019-03-27T05:15:40.343Z,6.00
2019-03-27T05:18:08.786Z,5.90
2019-03-27T05:20:37.556Z,5.90
2019-03-27T05:23:05.957Z,5.90
2019-03-27T05:25:34.610Z,5.90
2019-03-27T05:28:03.068Z,5.90
2019-03-27T05:30:31.596Z,5.90
2019-03-27T05:33:00.009Z,5.90
2019-03-27T05:35:28.469Z,5.90
2019-03-27T05:37:56.882Z,5.90
2019-03-27T05:40:25.288Z,5.80
2019-03-27T05:43:00.629Z,5.80
2019-03-27T05:45:24.936Z,5.80
2019-03-27T05:47:59.385Z,5.80
2019-03-27T05:50:23.803Z,5.80
2019-03-27T05:52:52.232Z,5.80
2019-03-27T05:55:20.702Z,5.80
2019-03-27T05:57:49.132Z,5.80
2019-03-27T06:00:18.617Z,5.80
2019-03-27T06:02:47.029Z,5.80
2019-03-27T06:05:15.729Z,5.80
2019-03-27T06:07:44.213Z,5.90
2019-03-27T06:10:16.144Z,5.90
2019-03-27T06:12:43.052Z,5.90
2019-03-27T06:15:11.600Z,5.90
2019-03-27T06:17:40.259Z,6.00
2019-03-27T06:20:09.218Z,6.00
2019-03-27T06:22:37.645Z,6.00
2019-03-27T06:25:08.171Z,6.00
2019-03-27T06:27:36.734Z,6.10
2019-03-27T06:30:07.288Z,6.10
2019-03-27T06:32:36.794Z,6.10
2019-03-27T06:35:07.197Z,6.20
2019-03-27T06:37:35.586Z,6.20
2019-03-27T06:40:05.789Z,6.20
2019-03-27T06:42:34.806Z,6.30
2019-03-27T06:45:03.882Z,6.30
2019-03-27T06:47:32.289Z,6.30
2019-03-27T06:50:00.737Z,6.40
2019-03-27T06:52:29.492Z,6.50
2019-03-27T06:54:57.979Z,6.50
2019-03-27T06:57:26.770Z,6.60
2019-03-27T06:59:55.785Z,6.60
2019-03-27T07:02:28.492Z,6.70
2019-03-27T07:04:54.592Z,6.70
2019-03-27T07:07:23.465Z,6.80
2019-03-27T07:09:51.918Z,6.90
2019-03-27T07:12:21.631Z,6.90
2019-03-27T07:14:50.474Z,7.00
2019-03-27T07:17:18.909Z,7.10
2019-03-27T07:19:47.370Z,7.10
2019-03-27T07:22:16.927Z,7.20
2019-03-27T07:24:45.629Z,7.20
2019-03-27T07:27:14.328Z,7.30
2019-03-27T07:29:42.755Z,7.40
2019-03-27T07:32:11.168Z,7.50
2019-03-27T07:34:39.937Z,7.50
2019-03-27T07:37:08.671Z,7.60
2019-03-27T07:39:37.441Z,7.70
2019-03-27T07:42:05.896Z,7.80
2019-03-27T07:44:34.572Z,7.90
2019-03-27T07:47:03.554Z,8.00
2019-03-27T07:49:31.969Z,8.10
2019-03-27T07:52:00.385Z,8.20
2019-03-27T07:54:29.053Z,8.30
2019-03-27T07:56:58.007Z,8.40
2019-03-27T07:59:26.406Z,8.50
2019-03-27T08:01:54.826Z,8.60
2019-03-27T08:04:23.275Z,8.70
2019-03-27T08:06:51.820Z,8.80
2019-03-27T08:09:22.980Z,8.90
2019-03-27T08:11:50.488Z,9.00
2019-03-27T08:14:19.350Z,9.10
2019-03-27T08:16:48.305Z,9.20
2019-03-27T08:19:17.675Z,9.30
2019-03-27T08:21:46.539Z,9.40
2019-03-27T08:24:15.426Z,9.50
2019-03-27T08:26:43.930Z,9.60
2019-03-27T08:29:12.631Z,9.70
2019-03-27T08:31:41.119Z,9.80
2019-03-27T08:34:09.551Z,9.90
2019-03-27T08:36:37.965Z,10.00
2019-03-27T08:39:08.011Z,10.20
2019-03-27T08:41:37.210Z,10.30
2019-03-27T08:44:05.790Z,10.40
2019-03-27T08:46:34.211Z,10.60
2019-03-27T08:49:02.670Z,10.70
2019-03-27T08:51:31.095Z,10.90
2019-03-27T08:53:59.830Z,11.10
2019-03-27T08:56:28.269Z,11.40
2019-03-27T08:58:56.950Z,11.60
2019-03-27T09:01:25.365Z,11.90
2019-03-27T09:03:54.453Z,12.10
2019-03-27T09:06:33.145Z,12.20
2019-03-27T09:08:55.427Z,12.30
2019-03-27T09:11:24.798Z,12.40
2019-03-27T09:13:53.251Z,12.40
2019-03-27T09:16:21.661Z,12.50
2019-03-27T09:18:50.398Z,12.40
2019-03-27T09:21:18.898Z,12.40
2019-03-27T09:23:47.296Z,12.40
2019-03-27T09:26:17.130Z,12.40
2019-03-27T09:28:45.520Z,12.40
2019-03-27T09:31:14.249Z,12.30
2019-03-27T09:33:42.758Z,12.30
2019-03-27T09:36:11.374Z,12.40
2019-03-27T09:38:39.924Z,12.70
2019-03-27T09:41:08.357Z,13.10
2019-03-27T09:43:37.087Z,13.60
2019-03-27T09:46:05.501Z,13.90
2019-03-27T09:48:33.982Z,14.30
2019-03-27T09:51:02.753Z,14.40
2019-03-27T09:53:31.165Z,14.40
2019-03-27T09:55:59.888Z,14.30
2019-03-27T09:58:28.690Z,14.20
2019-03-27T10:00:57.673Z,14.10
2019-03-27T10:03:26.097Z,14.00
2019-03-27T10:05:54.565Z,13.90
2019-03-27T10:08:22.982Z,13.80
2019-03-27T10:10:52.686Z,13.60
2019-03-27T10:13:21.578Z,13.50
2019-03-27T10:15:49.997Z,13.30
2019-03-27T10:18:18.426Z,13.20
2019-03-27T10:20:46.912Z,13.10
2019-03-27T10:23:15.335Z,13.00
2019-03-27T10:25:43.762Z,12.90
2019-03-27T10:28:12.804Z,12.90
2019-03-27T10:30:41.213Z,12.90
2019-03-27T10:33:09.667Z,12.90
2019-03-27T10:35:38.358Z,12.90
2019-03-27T10:38:06.843Z,13.00
2019-03-27T10:40:35.397Z,13.10
2019-03-27T10:43:03.816Z,13.10
2019-03-27T10:45:32.269Z,13.20
2019-03-27T10:48:00.704Z,13.20
2019-03-27T10:50:29.479Z,13.30
2019-03-27T10:52:58.576Z,13.40
2019-03-27T10:55:27.461Z,13.50
2019-03-27T10:57:55.902Z,13.60
2019-03-27T11:00:24.638Z,13.70
2019-03-27T11:02:53.095Z,13.80
2019-03-27T11:05:21.822Z,13.80
2019-03-27T11:07:50.233Z,13.90
2019-03-27T11:10:18.689Z,14.00
2019-03-27T11:12:47.107Z,14.00
2019-03-27T11:15:16.358Z,14.00
2019-03-27T11:17:45.162Z,14.00
2019-03-27T11:20:14.331Z,14.00
2019-03-27T11:22:42.749Z,14.00
2019-03-27T11:25:11.327Z,14.00
2019-03-27T11:27:39.733Z,14.10
2019-03-27T11:30:09.831Z,14.20
2019-03-27T11:32:38.623Z,14.40
2019-03-27T11:35:08.138Z,14.80
2019-03-27T11:37:36.533Z,15.10
2019-03-27T11:40:06.795Z,15.30
2019-03-27T11:42:35.216Z,15.40
2019-03-27T11:45:06.167Z,15.40
2019-03-27T11:47:34.631Z,15.30
2019-03-27T11:50:03.216Z,15.20
2019-03-27T11:52:31.633Z,15.10
2019-03-27T11:55:00.349Z,15.00
2019-03-27T11:57:28.899Z,14.80
2019-03-27T11:59:57.306Z,14.70
2019-03-27T12:02:25.747Z,14.50
2019-03-27T12:04:54.147Z,14.40
2019-03-27T12:07:23.089Z,14.30
2019-03-27T12:09:51.863Z,14.10
2019-03-27T12:12:20.275Z,14.00
2019-03-27T12:14:48.675Z,14.00
2019-03-27T12:17:17.113Z,14.00
2019-03-27T12:19:45.514Z,13.90
2019-03-27T12:22:14.573Z,13.90
2019-03-27T12:24:43.409Z,13.90
2019-03-27T12:27:11.920Z,13.90
2019-03-27T12:29:40.869Z,13.90
2019-03-27T12:32:09.722Z,13.80
2019-03-27T12:34:38.150Z,13.80
2019-03-27T12:37:06.588Z,13.90
2019-03-27T12:39:35.360Z,14.00
2019-03-27T12:42:03.768Z,14.10
2019-03-27T12:44:33.232Z,14.30
2019-03-27T12:47:01.671Z,14.40
2019-03-27T12:49:30.500Z,14.40
2019-03-27T12:51:58.902Z,14.40
2019-03-27T12:54:27.736Z,14.40
2019-03-27T12:56:56.469Z,14.30
2019-03-27T12:59:24.881Z,14.20
2019-03-27T13:01:53.315Z,14.10
2019-03-27T13:04:21.750Z,14.00
2019-03-27T13:06:50.154Z,14.00
2019-03-27T13:09:18.553Z,14.00
2019-03-27T13:11:47.375Z,13.90
2019-03-27T13:14:15.781Z,13.80
2019-03-27T13:16:44.678Z,13.80
2019-03-27T13:19:13.123Z,13.80
2019-03-27T13:21:41.833Z,13.80
2019-03-27T13:24:10.642Z,13.80
2019-03-27T13:26:39.059Z,13.80
2019-03-27T13:29:07.801Z,13.80
2019-03-27T13:31:36.242Z,13.90
2019-03-27T13:34:04.904Z,13.90
2019-03-27T13:36:35.347Z,13.90
2019-03-27T13:39:05.958Z,13.90
2019-03-27T13:41:34.581Z,14.00
2019-03-27T13:44:03.031Z,13.90
2019-03-27T13:46:32.430Z,14.00
2019-03-27T13:49:00.850Z,14.00
2019-03-27T13:51:39.828Z,14.00
2019-03-27T13:53:59.493Z,14.10
2019-03-27T13:56:28.195Z,14.20
2019-03-27T13:58:57.005Z,14.30
2019-03-27T14:01:25.909Z,14.30
2019-03-27T14:03:54.861Z,14.30
2019-03-27T14:06:24.243Z,14.30
2019-03-27T14:08:52.693Z,14.30
2019-03-27T14:11:21.155Z,14.20
2019-03-27T14:13:49.570Z,14.20
2019-03-27T14:16:18.060Z,14.20
2019-03-27T14:18:48.991Z,14.20
2019-03-27T14:21:16.936Z,14.30
2019-03-27T14:23:45.668Z,14.50
2019-03-27T14:26:14.081Z,14.80
2019-03-27T14:28:42.586Z,15.20
2019-03-27T14:31:11.116Z,15.50
2019-03-27T14:33:39.526Z,15.90
2019-03-27T14:36:08.256Z,16.30
2019-03-27T14:38:36.805Z,16.40
2019-03-27T14:41:05.499Z,16.50
2019-03-27T14:43:33.911Z,16.40
2019-03-27T14:46:02.475Z,16.40
2019-03-27T14:48:32.270Z,16.30
2019-03-27T14:51:01.010Z,16.20
2019-03-27T14:53:29.804Z,16.10
2019-03-27T14:55:58.217Z,16.00
2019-03-27T14:58:26.868Z,15.90
2019-03-27T15:00:55.722Z,15.80
2019-03-27T15:03:24.134Z,15.60
2019-03-27T15:05:53.026Z,15.50
2019-03-27T15:08:21.834Z,15.50
2019-03-27T15:10:51.349Z,15.40
2019-03-27T15:13:20.043Z,15.40
2019-03-27T15:15:48.478Z,15.30
2019-03-27T15:18:17.200Z,15.30
2019-03-27T15:20:45.617Z,15.20
2019-03-27T15:23:15.036Z,15.20
2019-03-27T15:25:43.445Z,15.20
2019-03-27T15:28:11.898Z,15.10
2019-03-27T15:30:40.325Z,15.10
2019-03-27T15:33:09.032Z,15.00
2019-03-27T15:35:37.441Z,15.00
2019-03-27T15:38:06.764Z,14.90
2019-03-27T15:40:40.446Z,14.90
2019-03-27T15:43:08.956Z,14.90
2019-03-27T15:45:37.405Z,14.80
2019-03-27T15:48:05.999Z,14.80
2019-03-27T15:50:34.457Z,14.70
2019-03-27T15:53:02.936Z,14.70
2019-03-27T15:55:31.344Z,14.70
2019-03-27T15:57:59.850Z,14.70
2019-03-27T16:00:28.297Z,14.70
2019-03-27T16:02:56.703Z,14.60
2019-03-27T16:05:26.423Z,14.60
2019-03-27T16:07:54.864Z,14.50
2019-03-27T16:10:23.708Z,14.50
2019-03-27T16:12:52.390Z,14.40
2019-03-27T16:15:23.362Z,14.40
2019-03-27T16:17:52.016Z,14.30
2019-03-27T16:20:20.429Z,14.30
2019-03-27T16:22:50.813Z,14.20
2019-03-27T16:25:19.233Z,14.20
2019-03-27T16:27:47.645Z,14.20
2019-03-27T16:30:17.300Z,14.10
2019-03-27T16:32:45.925Z,14.10
2019-03-27T16:35:15.187Z,14.00
2019-03-27T16:37:43.719Z,14.00
2019-03-27T16:40:13.450Z,13.90
2019-03-27T16:42:42.036Z,13.90
2019-03-27T16:45:14.318Z,13.80
2019-03-27T16:47:43.008Z,13.80
2019-03-27T16:50:11.748Z,13.70
2019-03-27T16:52:40.210Z,13.70
2019-03-27T16:55:10.156Z,13.60
2019-03-27T16:57:38.588Z,13.60
2019-03-27T17:00:08.650Z,13.50
2019-03-27T17:02:37.076Z,13.50
2019-03-27T17:05:07.942Z,13.40
2019-03-27T17:07:36.626Z,13.40
2019-03-27T17:10:06.807Z,13.30
2019-03-27T17:12:35.227Z,13.30
2019-03-27T17:15:04.949Z,13.20
2019-03-27T17:17:33.359Z,13.20
2019-03-27T17:20:02.195Z,13.10
2019-03-27T17:22:30.677Z,13.00
2019-03-27T17:24:59.102Z,13.00
2019-03-27T17:27:27.538Z,12.90
2019-03-27T17:29:56.089Z,12.90
2019-03-27T17:32:24.509Z,12.80
2019-03-27T17:34:52.894Z,12.70
2019-03-27T17:37:21.311Z,12.60
2019-03-27T17:39:50.045Z,12.60
2019-03-27T17:42:19.237Z,12.60
2019-03-27T17:44:47.747Z,12.60
2019-03-27T17:47:16.405Z,12.50
2019-03-27T17:49:44.866Z,12.50
2019-03-27T17:52:13.321Z,12.40
2019-03-27T17:54:41.729Z,12.40
2019-03-27T17:57:10.494Z,12.40
2019-03-27T17:59:38.917Z,12.30
2019-03-27T18:02:07.554Z,12.20
2019-03-27T18:04:35.967Z,12.20
2019-03-27T18:07:05.238Z,12.10
2019-03-27T18:09:33.905Z,12.00
2019-03-27T18:12:02.309Z,12.00
2019-03-27T18:14:30.843Z,11.90
2019-03-27T18:16:59.258Z,11.80
2019-03-27T18:19:27.668Z,11.80
2019-03-27T18:22:07.208Z,11.70
2019-03-27T18:24:27.457Z,11.60
2019-03-27T18:26:55.838Z,11.60
2019-03-27T18:29:24.277Z,11.50
2019-03-27T18:31:52.689Z,11.40
2019-03-27T18:34:21.753Z,11.40
2019-03-27T18:36:50.323Z,11.30
2019-03-27T18:39:18.731Z,11.30
2019-03-27T18:41:47.131Z,11.20
2019-03-27T18:44:15.910Z,11.20
2019-03-27T18:46:44.576Z,11.10
2019-03-27T18:49:12.963Z,11.00
2019-03-27T18:51:41.572Z,11.00
2019-03-27T18:54:10.047Z,10.90
2019-03-27T18:56:38.622Z,10.80
2019-03-27T18:59:07.048Z,10.80
2019-03-27T19:01:36.805Z,10.80
2019-03-27T19:04:05.276Z,10.70
2019-03-27T19:06:33.988Z,10.60
2019-03-27T19:09:02.396Z,10.60
2019-03-27T19:11:30.807Z,10.50
2019-03-27T19:13:59.267Z,10.40
2019-03-27T19:16:28.665Z,10.40
2019-03-27T19:18:57.068Z,10.20
2019-03-27T19:21:25.809Z,10.20
2019-03-27T19:23:54.232Z,10.20
2019-03-27T19:26:22.907Z,10.10
2019-03-27T19:28:53.909Z,10.10
2019-03-27T19:31:22.771Z,10.00
2019-03-27T19:33:51.521Z,9.90
2019-03-27T19:36:20.530Z,9.90
2019-03-27T19:38:49.216Z,9.80
2019-03-27T19:41:17.679Z,9.80
2019-03-27T19:43:46.119Z,9.70
2019-03-27T19:46:14.522Z,9.70
2019-03-27T19:48:43.302Z,9.60
2019-03-27T19:51:12.051Z,9.50
2019-03-27T19:53:40.729Z,9.40
2019-03-27T19:56:09.131Z,9.40
2019-03-27T19:58:37.727Z,9.30
2019-03-27T20:01:07.014Z,9.20
2019-03-27T20:03:35.409Z,9.20
2019-03-27T20:06:03.922Z,9.20
2019-03-27T20:08:32.329Z,9.10
2019-03-27T20:11:00.815Z,9.10
2019-03-27T20:13:29.542Z,9.10
2019-03-27T20:15:57.933Z,9.10
2019-03-27T20:18:26.746Z,9.00
2019-03-27T20:20:55.646Z,9.00
2019-03-27T20:23:24.295Z,8.90
2019-03-27T20:25:53.100Z,8.90
2019-03-27T20:28:21.774Z,8.90
2019-03-27T20:30:50.470Z,8.80
2019-03-27T20:33:18.878Z,8.70
2019-03-27T20:35:47.300Z,8.70
2019-03-27T20:38:15.704Z,8.70
2019-03-27T20:40:44.111Z,8.60
2019-03-27T20:43:12.574Z,8.60
2019-03-27T20:45:41.275Z,8.50
2019-03-27T20:48:09.922Z,8.50
2019-03-27T20:50:38.341Z,8.40
2019-03-27T20:53:06.733Z,8.30
2019-03-27T20:55:35.421Z,8.30
2019-03-27T20:58:03.850Z,8.30
2019-03-27T21:00:32.269Z,8.20
2019-03-27T21:03:00.697Z,8.20
2019-03-27T21:05:29.118Z,8.20
2019-03-27T21:07:57.515Z,8.20
2019-03-27T21:10:25.917Z,8.20
2019-03-27T21:12:54.627Z,8.10
2019-03-27T21:15:23.302Z,8.10
2019-03-27T21:17:51.706Z,8.10
2019-03-27T21:20:20.600Z,8.10
2019-03-27T21:22:49.296Z,8.00
2019-03-27T21:25:18.027Z,8.00
2019-03-27T21:27:46.479Z,8.00
2019-03-27T21:30:16.763Z,7.90
2019-03-27T21:32:45.397Z,7.90
2019-03-27T21:35:14.062Z,7.90
2019-03-27T21:37:42.555Z,7.90
2019-03-27T21:40:11.306Z,7.90
2019-03-27T21:42:39.708Z,7.90
2019-03-27T21:45:10.861Z,7.80
2019-03-27T21:47:39.241Z,7.80
2019-03-27T21:50:08.703Z,7.80
2019-03-27T21:52:37.150Z,7.80
2019-03-27T21:55:07.041Z,7.70
2019-03-27T21:57:36.773Z,7.70
2019-03-27T22:00:06.320Z,7.70
2019-03-27T22:02:35.269Z,7.60
2019-03-27T22:05:04.350Z,7.60
2019-03-27T22:07:32.753Z,7.60
2019-03-27T22:10:02.851Z,7.50
2019-03-27T22:12:31.266Z,7.50
2019-03-27T22:14:59.655Z,7.50
2019-03-27T22:17:28.335Z,7.50
2019-03-27T22:19:56.942Z,7.50
2019-03-27T22:22:25.795Z,7.50
2019-03-27T22:24:54.199Z,7.40
2019-03-27T22:27:22.891Z,7.40
2019-03-27T22:29:51.408Z,7.40
2019-03-27T22:32:19.818Z,7.40
2019-03-27T22:34:48.261Z,7.40
2019-03-27T22:37:16.654Z,7.30
2019-03-27T22:39:45.049Z,7.30
2019-03-27T22:42:13.481Z,7.30
2019-03-27T22:44:41.891Z,7.30
2019-03-27T22:47:10.281Z,7.20
2019-03-27T22:49:38.699Z,7.20
2019-03-27T22:52:07.630Z,7.20
2019-03-27T22:54:36.029Z,7.20
2019-03-27T22:57:04.623Z,7.20
2019-03-27T22:59:33.010Z,7.20
2019-03-27T23:02:01.412Z,7.10
2019-03-27T23:04:29.834Z,7.10
2019-03-27T23:06:58.480Z,7.10
2019-03-27T23:09:26.966Z,7.00
2019-03-27T23:11:55.936Z,7.00
2019-03-27T23:14:24.481Z,7.00
2019-03-27T23:16:53.255Z,7.00
2019-03-27T23:19:22.368Z,7.00
2019-03-27T23:21:51.042Z,7.00
2019-03-27T23:24:20.439Z,6.90
2019-03-27T23:26:49.202Z,6.90
2019-03-27T23:29:17.601Z,6.90
2019-03-27T23:31:45.999Z,6.90
2019-03-27T23:34:14.753Z,6.90
2019-03-27T23:36:43.158Z,6.90
2019-03-27T23:39:11.557Z,6.90
2019-03-27T23:41:40.025Z,6.90
2019-03-27T23:44:08.416Z,6.80
2019-03-27T23:46:36.819Z,6.80
2019-03-27T23:49:05.666Z,6.80
2019-03-27T23:51:34.068Z,6.80
2019-03-27T23:54:03.124Z,6.80
2019-03-27T23:56:31.561Z,6.80
2019-03-27T23:59:00.221Z,6.80
